Airfield :







YOU CAN JOIN US ON...

 
LOGIN :

Register | Disclaimer

   EN    FR    IT 

 









Legend :    VFR   Marginal VFR   IFR   Intensive IFR   Very Intensive IFR
Visi :
Ceiling :
>= 8 km
>= 3000ft
5 to 8 km
1000 to 3000 ft
1500m to 5 km
500 to 1000 ft
800 to 1500m
200 to 500 ft
< 800m
< 200 ft
Symbols :   Thunderstorms  Fog  Heavy snow  Heavy precipitations  Wind > 20 kt






- Airport Elevation : 1005 ft
- IATA code : YAH


CYAH - La Grande-4

CURRENT METAR :
  • 161310Z AUTO 25019G24KT 3/4SM -SN OVC020 M16/M19 A2957 RMK SLP047

EXPIRED METARs :
  • 161300Z AUTO 25017G24KT 1SM -SN OVC020 M16/M18 A2957 RMK PRESRR SLP046
  • 161247Z AUTO 26018G27KT 1SM -SN OVC022 M15/M18 A2955 RMK SLP040
  • 161220Z AUTO 27020G28KT 3/4SM -SN OVC022 M15/M18 A2954 RMK SLP034
  • 161200Z AUTO 27020G28KT 1SM -SN OVC020 M15/M17 A2953 RMK SLP033
  • 161103Z AUTO 27020G30KT 1SM -SN BKN019 OVC025 M14/M17 A2950 RMK SLP021
  • 161054Z AUTO 26020G28KT 1 1/4SM -SN FEW019 BKN025 OVC031 M14/M17 A2949 RMK SLP019

TAF AMD TAF CYAH
Valid from the 16 at 12:00 until the 16 at 22:00 UTC


161238Z 1612/1622 27020G30KT 3/4SM -SN BLSN OVC020
TEMPO 1612/1616 4SM -SN FEW020 OVC030
FM161600 26018G28KT P6SM -SN BKN030
TEMPO 1616/1618 5SM -SN BLSN BKN020
FM161800 26018G28KT P6SM BKN030 RMK FCST BASED ON AUTO OBS. NXT FCST BY 161800Z



MET'MAP, your aeronautical weather chart ! - Copyright ORBIFLY December 2007 - Disclaimer

ORBIFLY MET'MAP TEAM :

Programming & Development : Alexandra Zaïnal
Concept & original design : Baudouin d'Aumeries
Assistance for programming : Marc-Olivier Méhu
Technical & hardware support : Manuel Goepfert

Contact : metmap@orbifly.com




SOURCES & CREDITS :

   NOAA